sensor_id;sensor_type;location;lat;lon;timestamp;temperature;humidity
15656;DHT22;7928;43.614;1.456;2023-03-23T00:00:54;14.60;99.90
15656;DHT22;7928;43.614;1.456;2023-03-23T00:03:21;14.60;99.90
15656;DHT22;7928;43.614;1.456;2023-03-23T00:05:51;14.60;99.90
15656;DHT22;7928;43.614;1.456;2023-03-23T00:08:18;14.50;99.90
15656;DHT22;7928;43.614;1.456;2023-03-23T00:10:50;14.50;99.90
15656;DHT22;7928;43.614;1.456;2023-03-23T00:13:18;14.50;99.90
15656;DHT22;7928;43.614;1.456;2023-03-23T00:15:47;14.40;99.90
15656;DHT22;7928;43.614;1.456;2023-03-23T00:18:17;14.40;99.90
15656;DHT22;7928;43.614;1.456;2023-03-23T00:20:48;14.40;99.90
15656;DHT22;7928;43.614;1.456;2023-03-23T00:23:16;14.40;99.90
15656;DHT22;7928;43.614;1.456;2023-03-23T00:25:46;14.40;99.90
15656;DHT22;7928;43.614;1.456;2023-03-23T00:28:13;14.40;99.90
15656;DHT22;7928;43.614;1.456;2023-03-23T00:30:42;14.40;99.90
15656;DHT22;7928;43.614;1.456;2023-03-23T00:33:12;14.40;99.90
15656;DHT22;7928;43.614;1.456;2023-03-23T00:35:40;14.30;99.90
15656;DHT22;7928;43.614;1.456;2023-03-23T00:38:07;14.30;99.90
15656;DHT22;7928;43.614;1.456;2023-03-23T00:40:34;14.30;99.90
15656;DHT22;7928;43.614;1.456;2023-03-23T00:43:03;14.30;1.00
15656;DHT22;7928;43.614;1.456;2023-03-23T00:45:30;14.30;1.00
15656;DHT22;7928;43.614;1.456;2023-03-23T00:48:00;14.20;1.00
15656;DHT22;7928;43.614;1.456;2023-03-23T00:50:31;14.20;1.00
15656;DHT22;7928;43.614;1.456;2023-03-23T00:52:58;14.20;1.00
15656;DHT22;7928;43.614;1.456;2023-03-23T00:55:25;14.20;1.00
15656;DHT22;7928;43.614;1.456;2023-03-23T00:57:52;14.20;1.00
15656;DHT22;7928;43.614;1.456;2023-03-23T01:00:20;14.10;4.60
15656;DHT22;7928;43.614;1.456;2023-03-23T01:02:48;14.00;13.00
15656;DHT22;7928;43.614;1.456;2023-03-23T01:05:17;14.00;18.10
15656;DHT22;7928;43.614;1.456;2023-03-23T01:07:45;14.00;22.30
15656;DHT22;7928;43.614;1.456;2023-03-23T01:10:14;14.00;29.10
15656;DHT22;7928;43.614;1.456;2023-03-23T01:12:44;13.90;36.40
15656;DHT22;7928;43.614;1.456;2023-03-23T01:15:15;13.80;46.90
15656;DHT22;7928;43.614;1.456;2023-03-23T01:17:43;13.80;51.70
15656;DHT22;7928;43.614;1.456;2023-03-23T01:20:11;13.80;57.50
15656;DHT22;7928;43.614;1.456;2023-03-23T01:22:39;13.70;64.40
15656;DHT22;7928;43.614;1.456;2023-03-23T01:25:09;13.60;70.70
15656;DHT22;7928;43.614;1.456;2023-03-23T01:27:37;13.60;75.80
15656;DHT22;7928;43.614;1.456;2023-03-23T01:30:04;13.60;81.10
15656;DHT22;7928;43.614;1.456;2023-03-23T01:32:32;13.50;90.20
15656;DHT22;7928;43.614;1.456;2023-03-23T01:34:59;13.40;93.40
15656;DHT22;7928;43.614;1.456;2023-03-23T01:37:26;13.40;96.20
15656;DHT22;7928;43.614;1.456;2023-03-23T01:39:53;13.40;98.60
15656;DHT22;7928;43.614;1.456;2023-03-23T01:42:23;13.40;99.90
15656;DHT22;7928;43.614;1.456;2023-03-23T01:47:57;13.30;99.90
15656;DHT22;7928;43.614;1.456;2023-03-23T01:50:27;13.20;99.90
15656;DHT22;7928;43.614;1.456;2023-03-23T01:52:56;13.20;99.90
15656;DHT22;7928;43.614;1.456;2023-03-23T01:55:26;13.20;99.90
15656;DHT22;7928;43.614;1.456;2023-03-23T01:57:55;13.10;99.90
15656;DHT22;7928;43.614;1.456;2023-03-23T02:00:24;13.10;99.90
15656;DHT22;7928;43.614;1.456;2023-03-23T02:02:52;13.10;99.90
15656;DHT22;7928;43.614;1.456;2023-03-23T02:05:26;13.10;99.90
15656;DHT22;7928;43.614;1.456;2023-03-23T02:07:57;13.00;99.90
15656;DHT22;7928;43.614;1.456;2023-03-23T02:10:28;13.00;99.90
15656;DHT22;7928;43.614;1.456;2023-03-23T02:12:57;13.00;99.90
15656;DHT22;7928;43.614;1.456;2023-03-23T02:15:25;12.90;99.90
15656;DHT22;7928;43.614;1.456;2023-03-23T02:17:59;12.90;99.90
15656;DHT22;7928;43.614;1.456;2023-03-23T02:20:41;12.90;99.90
15656;DHT22;7928;43.614;1.456;2023-03-23T02:23:41;12.90;99.90
15656;DHT22;7928;43.614;1.456;2023-03-23T02:26:23;12.90;99.90
15656;DHT22;7928;43.614;1.456;2023-03-23T02:29:06;12.80;99.90
15656;DHT22;7928;43.614;1.456;2023-03-23T02:31:53;12.80;99.90
15656;DHT22;7928;43.614;1.456;2023-03-23T02:34:27;12.70;99.90
15656;DHT22;7928;43.614;1.456;2023-03-23T02:37:00;12.70;99.90
15656;DHT22;7928;43.614;1.456;2023-03-23T02:39:30;12.70;99.90
15656;DHT22;7928;43.614;1.456;2023-03-23T02:42:02;12.70;99.90
15656;DHT22;7928;43.614;1.456;2023-03-23T02:44:30;12.70;99.90
15656;DHT22;7928;43.614;1.456;2023-03-23T02:46:59;12.70;99.90
15656;DHT22;7928;43.614;1.456;2023-03-23T02:49:30;12.70;99.90
15656;DHT22;7928;43.614;1.456;2023-03-23T02:51:59;12.70;99.90
15656;DHT22;7928;43.614;1.456;2023-03-23T02:54:26;12.80;99.90
15656;DHT22;7928;43.614;1.456;2023-03-23T02:56:54;12.70;99.90
15656;DHT22;7928;43.614;1.456;2023-03-23T02:59:22;12.70;99.90
15656;DHT22;7928;43.614;1.456;2023-03-23T03:02:03;12.60;99.90
15656;DHT22;7928;43.614;1.456;2023-03-23T03:04:34;12.60;99.90
15656;DHT22;7928;43.614;1.456;2023-03-23T03:10:06;12.60;99.90
15656;DHT22;7928;43.614;1.456;2023-03-23T03:12:44;12.50;99.90
15656;DHT22;7928;43.614;1.456;2023-03-23T03:15:19;12.50;99.90
15656;DHT22;7928;43.614;1.456;2023-03-23T03:17:53;12.50;99.90
15656;DHT22;7928;43.614;1.456;2023-03-23T03:20:24;12.50;99.90
15656;DHT22;7928;43.614;1.456;2023-03-23T03:22:53;12.50;99.90
15656;DHT22;7928;43.614;1.456;2023-03-23T03:25:21;12.50;99.90
15656;DHT22;7928;43.614;1.456;2023-03-23T03:27:49;12.50;99.90
15656;DHT22;7928;43.614;1.456;2023-03-23T03:30:21;12.50;99.90
15656;DHT22;7928;43.614;1.456;2023-03-23T03:32:52;12.50;99.90
15656;DHT22;7928;43.614;1.456;2023-03-23T03:35:22;12.50;99.90
15656;DHT22;7928;43.614;1.456;2023-03-23T03:37:50;12.50;99.90
15656;DHT22;7928;43.614;1.456;2023-03-23T03:40:20;12.50;99.90
15656;DHT22;7928;43.614;1.456;2023-03-23T03:42:48;12.50;99.90
15656;DHT22;7928;43.614;1.456;2023-03-23T03:45:16;12.50;99.90
15656;DHT22;7928;43.614;1.456;2023-03-23T03:47:44;12.50;99.90
15656;DHT22;7928;43.614;1.456;2023-03-23T03:50:11;12.50;99.90
15656;DHT22;7928;43.614;1.456;2023-03-23T03:52:40;12.50;99.90
15656;DHT22;7928;43.614;1.456;2023-03-23T03:55:08;12.50;99.90
15656;DHT22;7928;43.614;1.456;2023-03-23T03:57:37;12.50;99.90
15656;DHT22;7928;43.614;1.456;2023-03-23T04:00:06;12.40;99.90
15656;DHT22;7928;43.614;1.456;2023-03-23T04:02:41;12.40;99.90
15656;DHT22;7928;43.614;1.456;2023-03-23T04:05:09;12.40;99.90
15656;DHT22;7928;43.614;1.456;2023-03-23T04:07:37;12.40;99.90
15656;DHT22;7928;43.614;1.456;2023-03-23T04:10:07;12.40;99.90
15656;DHT22;7928;43.614;1.456;2023-03-23T04:12:35;12.40;99.90
15656;DHT22;7928;43.614;1.456;2023-03-23T04:15:02;12.40;99.90
15656;DHT22;7928;43.614;1.456;2023-03-23T04:17:30;12.40;99.90
15656;DHT22;7928;43.614;1.456;2023-03-23T04:19:57;12.40;99.90
15656;DHT22;7928;43.614;1.456;2023-03-23T04:22:25;12.40;99.90
15656;DHT22;7928;43.614;1.456;2023-03-23T04:24:57;12.40;99.90
15656;DHT22;7928;43.614;1.456;2023-03-23T04:27:27;12.40;99.90
15656;DHT22;7928;43.614;1.456;2023-03-23T04:29:55;12.50;99.90
15656;DHT22;7928;43.614;1.456;2023-03-23T04:32:23;12.50;99.90
15656;DHT22;7928;43.614;1.456;2023-03-23T04:34:55;12.50;99.90
15656;DHT22;7928;43.614;1.456;2023-03-23T04:37:23;12.50;99.90
15656;DHT22;7928;43.614;1.456;2023-03-23T04:39:54;12.60;99.90
15656;DHT22;7928;43.614;1.456;2023-03-23T04:42:27;12.60;99.90
15656;DHT22;7928;43.614;1.456;2023-03-23T04:44:55;12.60;99.90
15656;DHT22;7928;43.614;1.456;2023-03-23T04:47:23;12.60;99.90
15656;DHT22;7928;43.614;1.456;2023-03-23T04:49:50;12.60;99.90
15656;DHT22;7928;43.614;1.456;2023-03-23T04:52:18;12.70;99.90
15656;DHT22;7928;43.614;1.456;2023-03-23T04:54:46;12.70;99.90
15656;DHT22;7928;43.614;1.456;2023-03-23T04:57:13;12.70;99.90
15656;DHT22;7928;43.614;1.456;2023-03-23T04:59:42;12.70;99.90
15656;DHT22;7928;43.614;1.456;2023-03-23T05:02:10;12.70;99.90
15656;DHT22;7928;43.614;1.456;2023-03-23T05:04:38;12.70;99.90
15656;DHT22;7928;43.614;1.456;2023-03-23T05:07:06;12.70;99.90
15656;DHT22;7928;43.614;1.456;2023-03-23T05:09:34;12.70;99.90
15656;DHT22;7928;43.614;1.456;2023-03-23T05:12:04;12.70;99.90
15656;DHT22;7928;43.614;1.456;2023-03-23T05:14:32;12.70;99.90
15656;DHT22;7928;43.614;1.456;2023-03-23T05:17:00;12.70;99.90
15656;DHT22;7928;43.614;1.456;2023-03-23T05:19:27;12.70;99.90
15656;DHT22;7928;43.614;1.456;2023-03-23T05:21:57;12.70;99.90
15656;DHT22;7928;43.614;1.456;2023-03-23T05:24:29;12.70;99.90
15656;DHT22;7928;43.614;1.456;2023-03-23T05:26:58;12.70;99.90
15656;DHT22;7928;43.614;1.456;2023-03-23T05:29:25;12.70;99.90
15656;DHT22;7928;43.614;1.456;2023-03-23T05:31:55;12.70;99.90
15656;DHT22;7928;43.614;1.456;2023-03-23T05:34:26;12.60;99.90
15656;DHT22;7928;43.614;1.456;2023-03-23T05:36:54;12.70;99.90
15656;DHT22;7928;43.614;1.456;2023-03-23T05:39:23;12.70;99.90
15656;DHT22;7928;43.614;1.456;2023-03-23T05:41:50;12.70;99.90
15656;DHT22;7928;43.614;1.456;2023-03-23T05:44:17;12.70;99.90
15656;DHT22;7928;43.614;1.456;2023-03-23T05:46:44;12.70;99.90
15656;DHT22;7928;43.614;1.456;2023-03-23T05:49:11;12.70;99.90
15656;DHT22;7928;43.614;1.456;2023-03-23T05:51:40;12.70;99.90
15656;DHT22;7928;43.614;1.456;2023-03-23T05:54:07;12.70;99.90
15656;DHT22;7928;43.614;1.456;2023-03-23T05:56:35;12.70;99.90
15656;DHT22;7928;43.614;1.456;2023-03-23T05:59:02;12.70;99.90
15656;DHT22;7928;43.614;1.456;2023-03-23T06:01:30;12.60;99.90
15656;DHT22;7928;43.614;1.456;2023-03-23T06:03:58;12.70;99.90
15656;DHT22;7928;43.614;1.456;2023-03-23T06:06:25;12.70;99.90
15656;DHT22;7928;43.614;1.456;2023-03-23T06:08:53;12.70;99.90
15656;DHT22;7928;43.614;1.456;2023-03-23T06:11:20;12.60;99.90
15656;DHT22;7928;43.614;1.456;2023-03-23T06:13:47;12.60;99.90
15656;DHT22;7928;43.614;1.456;2023-03-23T06:16:14;12.70;99.90
15656;DHT22;7928;43.614;1.456;2023-03-23T06:18:42;12.70;99.90
15656;DHT22;7928;43.614;1.456;2023-03-23T06:21:09;12.70;99.90
15656;DHT22;7928;43.614;1.456;2023-03-23T06:23:37;12.70;99.90
15656;DHT22;7928;43.614;1.456;2023-03-23T06:26:07;12.70;99.90
15656;DHT22;7928;43.614;1.456;2023-03-23T06:28:34;12.80;99.90
15656;DHT22;7928;43.614;1.456;2023-03-23T06:31:03;12.80;99.90
15656;DHT22;7928;43.614;1.456;2023-03-23T06:33:31;12.80;99.90
15656;DHT22;7928;43.614;1.456;2023-03-23T06:35:59;12.80;99.90
15656;DHT22;7928;43.614;1.456;2023-03-23T06:38:26;12.90;99.90
15656;DHT22;7928;43.614;1.456;2023-03-23T06:40:53;12.90;99.90
15656;DHT22;7928;43.614;1.456;2023-03-23T06:43:22;13.00;99.90
15656;DHT22;7928;43.614;1.456;2023-03-23T06:45:50;13.00;99.90
15656;DHT22;7928;43.614;1.456;2023-03-23T06:48:17;13.10;99.90
15656;DHT22;7928;43.614;1.456;2023-03-23T06:50:45;13.10;99.90
15656;DHT22;7928;43.614;1.456;2023-03-23T06:53:13;13.20;99.90
15656;DHT22;7928;43.614;1.456;2023-03-23T06:55:42;13.20;99.90
15656;DHT22;7928;43.614;1.456;2023-03-23T06:58:09;13.30;99.90
15656;DHT22;7928;43.614;1.456;2023-03-23T07:00:38;13.40;99.90
15656;DHT22;7928;43.614;1.456;2023-03-23T07:03:06;13.50;99.90
15656;DHT22;7928;43.614;1.456;2023-03-23T07:05:34;13.50;99.90
15656;DHT22;7928;43.614;1.456;2023-03-23T07:08:02;13.60;99.90
15656;DHT22;7928;43.614;1.456;2023-03-23T07:10:30;13.70;99.90
15656;DHT22;7928;43.614;1.456;2023-03-23T07:12:57;13.90;99.90
15656;DHT22;7928;43.614;1.456;2023-03-23T07:15:25;13.90;99.90
15656;DHT22;7928;43.614;1.456;2023-03-23T07:17:53;13.80;99.90
15656;DHT22;7928;43.614;1.456;2023-03-23T07:20:21;13.90;99.90
15656;DHT22;7928;43.614;1.456;2023-03-23T07:22:48;13.90;99.90
15656;DHT22;7928;43.614;1.456;2023-03-23T07:25:15;13.90;99.90
15656;DHT22;7928;43.614;1.456;2023-03-23T07:27:44;13.90;99.90
15656;DHT22;7928;43.614;1.456;2023-03-23T07:30:12;13.90;99.90
15656;DHT22;7928;43.614;1.456;2023-03-23T07:32:40;14.00;99.90
15656;DHT22;7928;43.614;1.456;2023-03-23T07:35:09;14.00;99.90
15656;DHT22;7928;43.614;1.456;2023-03-23T07:37:36;14.10;99.90
15656;DHT22;7928;43.614;1.456;2023-03-23T07:40:03;14.10;99.90
15656;DHT22;7928;43.614;1.456;2023-03-23T07:42:41;14.10;99.90
15656;DHT22;7928;43.614;1.456;2023-03-23T07:45:09;14.10;99.90
15656;DHT22;7928;43.614;1.456;2023-03-23T07:47:37;14.10;99.90
15656;DHT22;7928;43.614;1.456;2023-03-23T07:50:05;14.10;99.90
15656;DHT22;7928;43.614;1.456;2023-03-23T07:52:34;14.10;99.90
15656;DHT22;7928;43.614;1.456;2023-03-23T07:55:01;14.20;99.90
15656;DHT22;7928;43.614;1.456;2023-03-23T07:57:29;14.10;99.90
15656;DHT22;7928;43.614;1.456;2023-03-23T07:59:56;14.10;99.90
15656;DHT22;7928;43.614;1.456;2023-03-23T08:02:24;14.10;99.90
15656;DHT22;7928;43.614;1.456;2023-03-23T08:04:52;14.10;99.90
15656;DHT22;7928;43.614;1.456;2023-03-23T08:07:19;14.20;99.90
15656;DHT22;7928;43.614;1.456;2023-03-23T08:09:48;14.30;99.90
15656;DHT22;7928;43.614;1.456;2023-03-23T08:12:15;14.40;99.90
15656;DHT22;7928;43.614;1.456;2023-03-23T08:14:42;14.50;99.90
15656;DHT22;7928;43.614;1.456;2023-03-23T08:17:09;14.60;99.90
15656;DHT22;7928;43.614;1.456;2023-03-23T08:19:36;14.90;99.90
15656;DHT22;7928;43.614;1.456;2023-03-23T08:22:04;15.00;99.90
15656;DHT22;7928;43.614;1.456;2023-03-23T08:24:31;15.20;99.90
15656;DHT22;7928;43.614;1.456;2023-03-23T08:27:00;15.10;99.90
15656;DHT22;7928;43.614;1.456;2023-03-23T08:29:27;15.00;99.90
15656;DHT22;7928;43.614;1.456;2023-03-23T08:31:54;15.00;99.90
15656;DHT22;7928;43.614;1.456;2023-03-23T08:34:21;15.00;99.90
15656;DHT22;7928;43.614;1.456;2023-03-23T08:36:48;15.10;99.90
15656;DHT22;7928;43.614;1.456;2023-03-23T08:39:17;15.20;99.90
15656;DHT22;7928;43.614;1.456;2023-03-23T08:41:44;15.40;99.90
15656;DHT22;7928;43.614;1.456;2023-03-23T08:44:13;15.70;99.90
15656;DHT22;7928;43.614;1.456;2023-03-23T08:46:40;16.10;99.90
15656;DHT22;7928;43.614;1.456;2023-03-23T08:49:07;16.40;99.90
15656;DHT22;7928;43.614;1.456;2023-03-23T08:51:34;16.50;99.90
15656;DHT22;7928;43.614;1.456;2023-03-23T08:54:02;16.60;99.90
15656;DHT22;7928;43.614;1.456;2023-03-23T08:56:29;16.70;99.90
15656;DHT22;7928;43.614;1.456;2023-03-23T08:58:56;16.70;99.90
15656;DHT22;7928;43.614;1.456;2023-03-23T09:01:25;16.60;99.90
15656;DHT22;7928;43.614;1.456;2023-03-23T09:03:52;16.40;99.90
15656;DHT22;7928;43.614;1.456;2023-03-23T09:06:19;16.40;99.90
15656;DHT22;7928;43.614;1.456;2023-03-23T09:08:46;16.50;99.90
15656;DHT22;7928;43.614;1.456;2023-03-23T09:11:14;16.20;99.90
15656;DHT22;7928;43.614;1.456;2023-03-23T09:13:41;16.10;99.90
15656;DHT22;7928;43.614;1.456;2023-03-23T09:16:09;16.10;99.90
15656;DHT22;7928;43.614;1.456;2023-03-23T09:18:37;16.20;99.90
15656;DHT22;7928;43.614;1.456;2023-03-23T09:21:05;16.50;99.90
15656;DHT22;7928;43.614;1.456;2023-03-23T09:23:33;16.70;99.90
15656;DHT22;7928;43.614;1.456;2023-03-23T09:26:01;16.80;99.90
15656;DHT22;7928;43.614;1.456;2023-03-23T09:28:28;17.00;99.90
15656;DHT22;7928;43.614;1.456;2023-03-23T09:30:57;17.20;99.90
15656;DHT22;7928;43.614;1.456;2023-03-23T09:33:24;17.20;99.90
15656;DHT22;7928;43.614;1.456;2023-03-23T09:35:54;17.50;99.90
15656;DHT22;7928;43.614;1.456;2023-03-23T09:38:21;17.60;99.90
15656;DHT22;7928;43.614;1.456;2023-03-23T09:40:50;17.60;99.90
15656;DHT22;7928;43.614;1.456;2023-03-23T09:43:36;17.70;99.90
15656;DHT22;7928;43.614;1.456;2023-03-23T09:46:27;17.80;99.90
15656;DHT22;7928;43.614;1.456;2023-03-23T09:49:00;18.00;99.90
15656;DHT22;7928;43.614;1.456;2023-03-23T09:51:38;18.20;99.90
15656;DHT22;7928;43.614;1.456;2023-03-23T09:54:11;18.30;99.90
15656;DHT22;7928;43.614;1.456;2023-03-23T09:56:40;18.30;99.90
15656;DHT22;7928;43.614;1.456;2023-03-23T09:59:14;18.20;99.90
15656;DHT22;7928;43.614;1.456;2023-03-23T10:01:45;18.20;99.90
15656;DHT22;7928;43.614;1.456;2023-03-23T10:04:19;17.90;99.90
15656;DHT22;7928;43.614;1.456;2023-03-23T10:06:49;17.80;99.90
15656;DHT22;7928;43.614;1.456;2023-03-23T10:09:18;17.70;99.90
15656;DHT22;7928;43.614;1.456;2023-03-23T10:11:53;17.80;99.90
15656;DHT22;7928;43.614;1.456;2023-03-23T10:14:31;18.10;99.90
15656;DHT22;7928;43.614;1.456;2023-03-23T10:17:07;18.50;99.90
15656;DHT22;7928;43.614;1.456;2023-03-23T10:19:46;18.40;99.90
15656;DHT22;7928;43.614;1.456;2023-03-23T10:22:16;18.70;99.90
15656;DHT22;7928;43.614;1.456;2023-03-23T10:24:50;18.50;99.90
15656;DHT22;7928;43.614;1.456;2023-03-23T10:27:22;18.10;99.90
15656;DHT22;7928;43.614;1.456;2023-03-23T10:29:53;18.30;99.90
15656;DHT22;7928;43.614;1.456;2023-03-23T10:32:39;18.30;99.90
15656;DHT22;7928;43.614;1.456;2023-03-23T10:35:11;18.30;99.90
15656;DHT22;7928;43.614;1.456;2023-03-23T10:37:44;18.50;99.90
15656;DHT22;7928;43.614;1.456;2023-03-23T10:40:15;18.80;99.90
15656;DHT22;7928;43.614;1.456;2023-03-23T10:42:43;19.30;99.90
15656;DHT22;7928;43.614;1.456;2023-03-23T10:45:15;19.80;99.90
15656;DHT22;7928;43.614;1.456;2023-03-23T10:47:48;20.60;99.90
15656;DHT22;7928;43.614;1.456;2023-03-23T10:50:21;20.70;99.90
15656;DHT22;7928;43.614;1.456;2023-03-23T10:52:51;21.10;99.90
15656;DHT22;7928;43.614;1.456;2023-03-23T10:55:21;22.50;99.90
15656;DHT22;7928;43.614;1.456;2023-03-23T10:57:59;22.30;99.90
15656;DHT22;7928;43.614;1.456;2023-03-23T11:00:28;22.10;99.90
15656;DHT22;7928;43.614;1.456;2023-03-23T11:03:01;22.40;99.90
15656;DHT22;7928;43.614;1.456;2023-03-23T11:05:35;22.90;99.90
15656;DHT22;7928;43.614;1.456;2023-03-23T11:08:11;22.70;99.90
15656;DHT22;7928;43.614;1.456;2023-03-23T11:10:41;22.50;99.90
15656;DHT22;7928;43.614;1.456;2023-03-23T11:13:13;23.20;99.90
15656;DHT22;7928;43.614;1.456;2023-03-23T11:15:42;23.70;99.90
15656;DHT22;7928;43.614;1.456;2023-03-23T11:18:12;23.00;99.90
15656;DHT22;7928;43.614;1.456;2023-03-23T11:20:41;23.60;99.90
15656;DHT22;7928;43.614;1.456;2023-03-23T11:23:32;23.40;99.90
15656;DHT22;7928;43.614;1.456;2023-03-23T11:26:03;23.80;99.90
15656;DHT22;7928;43.614;1.456;2023-03-23T11:28:34;24.50;99.90
15656;DHT22;7928;43.614;1.456;2023-03-23T11:31:03;24.80;99.90
15656;DHT22;7928;43.614;1.456;2023-03-23T11:33:37;25.10;99.90
15656;DHT22;7928;43.614;1.456;2023-03-23T11:36:06;24.60;99.90
15656;DHT22;7928;43.614;1.456;2023-03-23T11:38:35;24.50;99.90
15656;DHT22;7928;43.614;1.456;2023-03-23T11:41:09;24.00;99.90
15656;DHT22;7928;43.614;1.456;2023-03-23T11:43:40;23.50;99.90
15656;DHT22;7928;43.614;1.456;2023-03-23T11:46:15;23.90;99.90
15656;DHT22;7928;43.614;1.456;2023-03-23T11:48:55;24.20;99.90
15656;DHT22;7928;43.614;1.456;2023-03-23T11:51:29;25.10;99.90
15656;DHT22;7928;43.614;1.456;2023-03-23T11:54:02;25.10;99.90
15656;DHT22;7928;43.614;1.456;2023-03-23T11:56:34;23.80;99.90
15656;DHT22;7928;43.614;1.456;2023-03-23T11:59:03;24.00;99.90
15656;DHT22;7928;43.614;1.456;2023-03-23T12:01:48;24.00;99.90
15656;DHT22;7928;43.614;1.456;2023-03-23T12:04:37;23.30;99.90
15656;DHT22;7928;43.614;1.456;2023-03-23T12:07:28;23.50;99.90
15656;DHT22;7928;43.614;1.456;2023-03-23T12:10:05;23.40;99.90
15656;DHT22;7928;43.614;1.456;2023-03-23T12:12:43;23.90;99.90
15656;DHT22;7928;43.614;1.456;2023-03-23T12:15:20;23.70;99.90
15656;DHT22;7928;43.614;1.456;2023-03-23T12:17:57;24.30;99.90
15656;DHT22;7928;43.614;1.456;2023-03-23T12:20:37;24.10;99.90
15656;DHT22;7928;43.614;1.456;2023-03-23T12:23:14;24.40;99.90
15656;DHT22;7928;43.614;1.456;2023-03-23T12:32:00;27.20;99.90
15656;DHT22;7928;43.614;1.456;2023-03-23T12:34:38;25.80;99.90
15656;DHT22;7928;43.614;1.456;2023-03-23T12:37:25;25.00;99.90
15656;DHT22;7928;43.614;1.456;2023-03-23T12:40:06;24.90;99.90
15656;DHT22;7928;43.614;1.456;2023-03-23T12:42:51;24.80;99.90
15656;DHT22;7928;43.614;1.456;2023-03-23T12:45:37;25.40;99.90
15656;DHT22;7928;43.614;1.456;2023-03-23T12:48:10;25.70;99.90
15656;DHT22;7928;43.614;1.456;2023-03-23T12:50:42;26.30;99.90
15656;DHT22;7928;43.614;1.456;2023-03-23T12:53:14;25.70;99.90
15656;DHT22;7928;43.614;1.456;2023-03-23T12:55:46;24.50;99.90
15656;DHT22;7928;43.614;1.456;2023-03-23T12:58:17;23.60;99.90
15656;DHT22;7928;43.614;1.456;2023-03-23T13:00:57;23.80;99.90
15656;DHT22;7928;43.614;1.456;2023-03-23T13:03:30;23.70;99.90
15656;DHT22;7928;43.614;1.456;2023-03-23T13:06:04;25.30;99.90
15656;DHT22;7928;43.614;1.456;2023-03-23T13:08:35;25.30;99.90
15656;DHT22;7928;43.614;1.456;2023-03-23T13:11:06;24.70;99.90
15656;DHT22;7928;43.614;1.456;2023-03-23T13:13:47;25.10;99.90
15656;DHT22;7928;43.614;1.456;2023-03-23T13:16:24;25.30;99.90
15656;DHT22;7928;43.614;1.456;2023-03-23T13:19:05;25.60;99.90
15656;DHT22;7928;43.614;1.456;2023-03-23T13:21:38;26.10;99.90
15656;DHT22;7928;43.614;1.456;2023-03-23T13:24:11;25.70;99.90
15656;DHT22;7928;43.614;1.456;2023-03-23T13:26:41;25.40;99.90
15656;DHT22;7928;43.614;1.456;2023-03-23T13:29:12;25.10;99.90
15656;DHT22;7928;43.614;1.456;2023-03-23T13:31:42;25.80;99.90
15656;DHT22;7928;43.614;1.456;2023-03-23T13:34:15;25.90;99.90
15656;DHT22;7928;43.614;1.456;2023-03-23T13:36:51;25.40;99.90
15656;DHT22;7928;43.614;1.456;2023-03-23T13:39:20;26.40;99.90
15656;DHT22;7928;43.614;1.456;2023-03-23T13:42:00;27.10;99.90
15656;DHT22;7928;43.614;1.456;2023-03-23T13:44:41;25.70;99.90
15656;DHT22;7928;43.614;1.456;2023-03-23T13:47:25;24.60;99.90
15656;DHT22;7928;43.614;1.456;2023-03-23T13:49:55;24.30;99.90
15656;DHT22;7928;43.614;1.456;2023-03-23T13:52:25;24.50;99.90
15656;DHT22;7928;43.614;1.456;2023-03-23T13:55:19;25.40;99.90
15656;DHT22;7928;43.614;1.456;2023-03-23T13:57:51;25.00;99.90
15656;DHT22;7928;43.614;1.456;2023-03-23T14:00:46;25.70;99.90
15656;DHT22;7928;43.614;1.456;2023-03-23T14:03:19;25.40;99.90
15656;DHT22;7928;43.614;1.456;2023-03-23T14:05:59;25.30;99.90
15656;DHT22;7928;43.614;1.456;2023-03-23T14:08:38;24.90;99.90
15656;DHT22;7928;43.614;1.456;2023-03-23T14:11:12;24.00;99.90
15656;DHT22;7928;43.614;1.456;2023-03-23T14:13:44;24.00;99.90
15656;DHT22;7928;43.614;1.456;2023-03-23T14:16:17;23.60;99.90
15656;DHT22;7928;43.614;1.456;2023-03-23T14:18:56;23.60;99.90
15656;DHT22;7928;43.614;1.456;2023-03-23T14:21:34;24.40;99.90
15656;DHT22;7928;43.614;1.456;2023-03-23T14:24:09;24.70;99.90
15656;DHT22;7928;43.614;1.456;2023-03-23T14:26:37;24.50;99.90
15656;DHT22;7928;43.614;1.456;2023-03-23T14:29:05;24.30;99.90
15656;DHT22;7928;43.614;1.456;2023-03-23T14:31:35;23.70;99.90
15656;DHT22;7928;43.614;1.456;2023-03-23T14:34:09;24.20;99.90
15656;DHT22;7928;43.614;1.456;2023-03-23T14:36:39;23.80;99.90
15656;DHT22;7928;43.614;1.456;2023-03-23T14:39:15;23.80;99.90
15656;DHT22;7928;43.614;1.456;2023-03-23T14:41:43;23.30;99.90
15656;DHT22;7928;43.614;1.456;2023-03-23T14:44:14;22.20;99.90
15656;DHT22;7928;43.614;1.456;2023-03-23T14:46:43;22.00;99.90
15656;DHT22;7928;43.614;1.456;2023-03-23T14:49:15;22.10;99.90
15656;DHT22;7928;43.614;1.456;2023-03-23T14:51:47;22.10;99.90
15656;DHT22;7928;43.614;1.456;2023-03-23T14:54:15;22.20;99.90
15656;DHT22;7928;43.614;1.456;2023-03-23T14:56:47;21.70;99.90
15656;DHT22;7928;43.614;1.456;2023-03-23T14:59:14;21.80;99.90
15656;DHT22;7928;43.614;1.456;2023-03-23T15:01:42;21.20;99.90
15656;DHT22;7928;43.614;1.456;2023-03-23T15:04:14;20.80;99.90
15656;DHT22;7928;43.614;1.456;2023-03-23T15:06:43;20.80;99.90
15656;DHT22;7928;43.614;1.456;2023-03-23T15:09:13;21.40;99.90
15656;DHT22;7928;43.614;1.456;2023-03-23T15:11:43;21.70;99.90
15656;DHT22;7928;43.614;1.456;2023-03-23T15:14:15;21.50;99.90
15656;DHT22;7928;43.614;1.456;2023-03-23T15:16:46;21.80;99.90
15656;DHT22;7928;43.614;1.456;2023-03-23T15:19:18;21.30;99.90
15656;DHT22;7928;43.614;1.456;2023-03-23T15:21:48;21.20;99.90
15656;DHT22;7928;43.614;1.456;2023-03-23T15:24:26;21.60;99.90
15656;DHT22;7928;43.614;1.456;2023-03-23T15:26:54;21.60;99.90
15656;DHT22;7928;43.614;1.456;2023-03-23T15:29:29;21.00;99.90
15656;DHT22;7928;43.614;1.456;2023-03-23T15:31:56;20.60;99.90
15656;DHT22;7928;43.614;1.456;2023-03-23T15:34:31;20.70;99.90
15656;DHT22;7928;43.614;1.456;2023-03-23T15:37:01;21.00;99.90
15656;DHT22;7928;43.614;1.456;2023-03-23T15:39:28;20.90;99.90
15656;DHT22;7928;43.614;1.456;2023-03-23T15:41:57;20.60;99.90
15656;DHT22;7928;43.614;1.456;2023-03-23T15:44:33;19.90;99.90
15656;DHT22;7928;43.614;1.456;2023-03-23T15:47:14;19.80;99.90
15656;DHT22;7928;43.614;1.456;2023-03-23T15:49:44;19.70;99.90
15656;DHT22;7928;43.614;1.456;2023-03-23T15:52:13;19.70;99.90
15656;DHT22;7928;43.614;1.456;2023-03-23T15:54:47;19.80;99.90
15656;DHT22;7928;43.614;1.456;2023-03-23T15:57:14;19.80;99.90
15656;DHT22;7928;43.614;1.456;2023-03-23T15:59:41;20.00;99.90
15656;DHT22;7928;43.614;1.456;2023-03-23T16:02:16;20.20;99.90
15656;DHT22;7928;43.614;1.456;2023-03-23T16:04:45;19.70;99.90
15656;DHT22;7928;43.614;1.456;2023-03-23T17:24:50;17.40;99.90
15656;DHT22;7928;43.614;1.456;2023-03-23T17:27:19;17.10;99.90
15656;DHT22;7928;43.614;1.456;2023-03-23T17:29:46;16.90;99.90
15656;DHT22;7928;43.614;1.456;2023-03-23T17:32:14;16.90;99.90
15656;DHT22;7928;43.614;1.456;2023-03-23T17:34:41;16.80;99.90
15656;DHT22;7928;43.614;1.456;2023-03-23T17:37:08;16.70;99.90
15656;DHT22;7928;43.614;1.456;2023-03-23T17:39:35;16.50;99.90